createdAt,value
2022-12-18T00:02:12.479Z,103017.88
2022-12-18T00:04:39.039Z,103009.91
2022-12-18T00:07:05.367Z,103010.91
2022-12-18T00:09:39.689Z,102997.91
2022-12-18T00:14:45.191Z,102985.09
2022-12-18T00:17:11.553Z,102985.09
2022-12-18T00:19:37.846Z,102990.28
2022-12-18T00:22:04.310Z,102993.53
2022-12-18T00:24:30.670Z,102988.84
2022-12-18T00:26:58.382Z,103004.75
2022-12-18T00:29:24.802Z,103000.88
2022-12-18T00:31:51.192Z,103000.22
2022-12-18T00:34:17.529Z,102994.22
2022-12-18T00:36:43.838Z,102989.66
2022-12-18T00:39:12.975Z,102991.63
2022-12-18T00:41:58.234Z,102992.63
2022-12-18T00:44:24.560Z,102996.81
2022-12-18T00:46:50.950Z,102992.94
2022-12-18T00:49:19.861Z,102984.66
2022-12-18T00:51:47.020Z,102981.44
2022-12-18T00:54:13.723Z,102989.38
2022-12-18T00:56:48.387Z,102993.59
2022-12-18T00:59:15.795Z,102991.81
2022-12-18T01:01:42.306Z,102992.63
2022-12-18T01:04:09.037Z,102992.16
2022-12-18T01:06:35.468Z,102979.31
2022-12-18T01:09:03.081Z,102970.91
2022-12-18T01:11:29.431Z,102974.78
2022-12-18T01:13:56.309Z,102976.41
2022-12-18T01:16:23.662Z,102972.38
2022-12-18T01:18:53.995Z,102979.84
2022-12-18T01:21:21.167Z,102993.97
2022-12-18T01:23:48.031Z,102989.59
2022-12-18T01:26:17.955Z,102989.41
2022-12-18T01:28:44.977Z,102994.59
2022-12-18T01:31:15.723Z,103004.50
2022-12-18T01:33:42.806Z,102998.66
2022-12-18T01:36:14.993Z,103005.00
2022-12-18T01:38:41.303Z,103005.97
2022-12-18T01:41:07.985Z,103001.59
2022-12-18T01:43:56.117Z,103010.69
2022-12-18T01:46:26.012Z,103009.38
2022-12-18T01:48:57.485Z,103012.31
2022-12-18T01:51:25.056Z,103010.22
2022-12-18T01:53:51.426Z,103011.50
2022-12-18T01:56:19.675Z,103005.19
2022-12-18T01:59:00.730Z,103001.91
2022-12-18T02:01:28.091Z,103000.78
2022-12-18T02:03:54.487Z,103007.28
2022-12-18T02:06:33.083Z,103008.28
2022-12-18T02:09:07.579Z,103018.13
2022-12-18T02:11:43.782Z,103022.03
2022-12-18T02:14:19.586Z,103014.41
2022-12-18T02:16:54.924Z,103011.81
2022-12-18T02:19:42.959Z,103010.34
2022-12-18T02:22:12.263Z,103009.88
2022-12-18T02:25:29.664Z,103014.56
2022-12-18T02:28:00.274Z,103012.28
2022-12-18T02:30:29.943Z,103027.19
2022-12-18T02:32:58.233Z,103020.72
2022-12-18T02:35:28.395Z,103019.91
2022-12-18T02:37:55.481Z,103012.59
2022-12-18T02:40:24.943Z,103008.53
2022-12-18T02:42:51.502Z,103008.53
2022-12-18T02:45:17.903Z,103008.53
2022-12-18T02:47:48.322Z,102999.94
2022-12-18T02:50:26.171Z,102991.03
2022-12-18T02:53:11.019Z,102993.13
2022-12-18T02:55:52.556Z,102991.81
2022-12-18T02:58:35.329Z,102990.22
2022-12-18T03:01:11.196Z,102998.16
2022-12-18T03:03:58.458Z,102987.59
2022-12-18T03:06:29.830Z,102986.13
2022-12-18T03:09:08.247Z,102982.22
2022-12-18T03:12:00.048Z,102965.38
2022-12-18T03:14:31.994Z,102968.13
2022-12-18T03:17:03.458Z,102973.47
2022-12-18T03:19:34.012Z,102975.09
2022-12-18T03:22:04.528Z,102972.50
2022-12-18T03:24:32.540Z,102967.47
2022-12-18T03:27:03.351Z,102967.66
2022-12-18T03:29:36.777Z,102966.97
2022-12-18T03:32:08.582Z,102960.84
2022-12-18T03:34:37.944Z,102957.28
2022-12-18T03:37:05.551Z,102956.94
2022-12-18T03:39:32.013Z,102951.75
2022-12-18T03:42:19.895Z,102944.31
2022-12-18T03:44:54.519Z,102946.56
2022-12-18T03:47:30.466Z,102941.06
2022-12-18T03:50:18.914Z,102937.16
2022-12-18T03:52:53.715Z,102942.66
2022-12-18T03:55:21.843Z,102937.63
2022-12-18T03:57:51.513Z,102941.69
2022-12-18T04:00:19.650Z,102933.25
2022-12-18T04:02:50.982Z,102936.81
2022-12-18T04:05:19.221Z,102934.41
2022-12-18T04:07:48.669Z,102931.94
2022-12-18T04:10:16.683Z,102926.28
2022-12-18T04:12:43.524Z,102934.88
2022-12-18T04:15:11.880Z,102929.84
2022-12-18T04:17:39.983Z,102919.16
2022-12-18T04:20:07.012Z,102914.63
2022-12-18T04:22:33.463Z,102912.72
2022-12-18T04:25:01.491Z,102916.91
2022-12-18T04:27:27.914Z,102913.19
2022-12-18T04:29:55.479Z,102906.25
2022-12-18T04:32:22.933Z,102908.16
2022-12-18T04:34:49.425Z,102912.53
2022-12-18T04:37:16.071Z,102911.22
2022-12-18T04:39:42.473Z,102899.59
2022-12-18T04:42:08.778Z,102912.66
2022-12-18T04:44:35.215Z,102918.97
2022-12-18T04:47:01.507Z,102923.19
2022-12-18T04:49:27.991Z,102929.34
2022-12-18T04:51:54.558Z,102937.28
2022-12-18T04:54:21.563Z,102937.56
2022-12-18T04:56:47.871Z,102937.75
2022-12-18T04:59:14.514Z,102939.53
2022-12-18T05:01:41.020Z,102942.09
2022-12-18T05:04:07.684Z,102948.25
2022-12-18T05:06:34.088Z,102954.25
2022-12-18T05:09:00.453Z,102960.22
2022-12-18T05:11:26.892Z,102958.13
2022-12-18T05:13:55.111Z,102957.47
2022-12-18T05:16:21.496Z,102960.59
2022-12-18T05:18:48.019Z,102967.03
2022-12-18T05:21:14.462Z,102958.44
2022-12-18T05:23:41.345Z,102965.91
2022-12-18T05:26:08.679Z,102970.13
2022-12-18T05:28:36.691Z,102975.44
2022-12-18T05:31:04.831Z,102983.06
2022-12-18T05:33:33.405Z,102985.66
2022-12-18T05:36:06.053Z,102990.97
2022-12-18T05:38:34.395Z,102976.25
2022-12-18T05:41:00.830Z,102985.16
2022-12-18T05:43:28.713Z,102973.00
2022-12-18T05:45:57.013Z,102963.16
2022-12-18T05:48:25.215Z,102954.44
2022-12-18T05:50:53.290Z,102956.22
2022-12-18T05:53:22.293Z,102956.34
2022-12-18T05:55:48.731Z,102954.72
2022-12-18T05:58:17.179Z,102950.34
2022-12-18T06:00:47.197Z,102945.19
2022-12-18T06:03:36.322Z,102940.97
2022-12-18T06:06:05.067Z,102941.94
2022-12-18T06:08:31.678Z,102938.72
2022-12-18T06:10:58.251Z,102938.72
2022-12-18T06:13:24.572Z,102940.16
2022-12-18T06:15:50.905Z,102937.75
2022-12-18T06:18:17.263Z,102930.94
2022-12-18T06:20:44.714Z,102920.88
2022-12-18T06:23:12.732Z,102920.06
2022-12-18T06:25:40.951Z,102917.50
2022-12-18T06:28:08.463Z,102926.06
2022-12-18T06:30:34.953Z,102916.69
2022-12-18T06:33:01.347Z,102921.03
2022-12-18T06:35:27.635Z,102917.47
2022-12-18T06:37:53.966Z,102916.97
2022-12-18T06:40:20.281Z,102906.09
2022-12-18T06:42:46.590Z,102906.91
2022-12-18T06:45:15.851Z,102912.41
2022-12-18T06:47:42.263Z,102904.81
2022-12-18T06:50:08.779Z,102892.00
2022-12-18T06:52:35.170Z,102897.34
2022-12-18T06:55:01.807Z,102883.59
2022-12-18T06:57:28.247Z,102893.94
2022-12-18T06:59:54.626Z,102887.44
2022-12-18T07:02:21.054Z,102885.31
2022-12-18T07:04:47.466Z,102876.75
2022-12-18T07:07:13.797Z,102875.44
2022-12-18T07:09:41.811Z,102874.94
2022-12-18T07:12:08.895Z,102875.09
2022-12-18T07:14:35.248Z,102876.19
2022-12-18T07:17:02.567Z,102866.81
2022-12-18T07:19:29.867Z,102861.66
2022-12-18T07:21:57.235Z,102864.06
2022-12-18T07:24:23.591Z,102862.16
2022-12-18T07:26:49.883Z,102868.94
2022-12-18T07:29:16.461Z,102866.19
2022-12-18T07:31:43.158Z,102860.06
2022-12-18T07:34:14.535Z,102852.81
2022-12-18T07:36:41.307Z,102848.28
2022-12-18T07:39:07.863Z,102847.31
2022-12-18T07:41:34.632Z,102852.81
2022-12-18T07:44:02.990Z,102846.00
2022-12-18T07:46:29.354Z,102840.84
2022-12-18T07:48:55.660Z,102830.78
2022-12-18T07:51:21.983Z,102830.50
2022-12-18T07:53:49.763Z,102829.34
2022-12-18T07:56:27.140Z,102824.97
2022-12-18T07:58:55.566Z,102822.91
2022-12-18T08:01:22.093Z,102812.91
2022-12-18T08:03:48.506Z,102823.44
2022-12-18T08:06:16.244Z,102808.88
2022-12-18T08:08:43.120Z,102812.47
2022-12-18T08:11:09.430Z,102802.28
2022-12-18T08:13:35.935Z,102796.31
2022-12-18T08:16:05.099Z,102794.88
2022-12-18T08:18:33.749Z,102806.66
2022-12-18T08:21:12.211Z,102810.56
2022-12-18T08:23:42.608Z,102790.97
2022-12-18T08:26:11.900Z,102806.97
2022-12-18T08:28:38.614Z,102813.44
2022-12-18T08:31:05.208Z,102826.72
2022-12-18T08:33:32.283Z,102832.56
2022-12-18T08:36:02.337Z,102836.44
2022-12-18T08:38:28.672Z,102827.88
2022-12-18T08:41:06.688Z,102832.88
2022-12-18T08:43:51.762Z,102828.31
2022-12-18T08:46:19.224Z,102807.44
2022-12-18T08:48:46.360Z,102810.34
2022-12-18T08:51:12.935Z,102819.06
2022-12-18T08:53:39.957Z,102817.91
2022-12-18T08:56:06.841Z,102816.59
2022-12-18T08:58:33.174Z,102814.75
2022-12-18T09:01:05.072Z,102809.56
2022-12-18T09:03:31.720Z,102832.22
2022-12-18T09:05:58.096Z,102838.34
2022-12-18T09:08:24.444Z,102833.72
2022-12-18T09:10:52.486Z,102820.44
2022-12-18T09:13:19.417Z,102816.16
2022-12-18T09:15:49.220Z,102822.63
2022-12-18T09:18:17.489Z,102823.94
2022-12-18T09:20:44.155Z,102812.22
2022-12-18T09:23:10.827Z,102811.22
2022-12-18T09:25:37.844Z,102815.09
2022-12-18T09:28:11.246Z,102817.34
2022-12-18T09:30:42.809Z,102817.03
2022-12-18T09:33:10.291Z,102815.03
2022-12-18T09:35:40.830Z,102808.69
2022-12-18T09:38:09.561Z,102799.56
2022-12-18T09:40:40.733Z,102789.94
2022-12-18T09:43:08.466Z,102784.75
2022-12-18T09:45:50.660Z,102779.97
2022-12-18T09:48:24.498Z,102789.06
2022-12-18T09:50:52.655Z,102772.75
2022-12-18T09:53:25.916Z,102772.06
2022-12-18T09:55:54.027Z,102754.94
2022-12-18T09:58:32.519Z,102764.47
2022-12-18T10:00:58.876Z,102770.91
2022-12-18T10:03:25.316Z,102765.19
2022-12-18T10:06:11.976Z,102767.25
2022-12-18T10:08:50.011Z,102763.16
2022-12-18T10:11:41.025Z,102767.81
2022-12-18T10:14:15.279Z,102756.69
2022-12-18T10:16:59.577Z,102745.75
2022-12-18T10:19:40.675Z,102745.84
2022-12-18T10:22:20.123Z,102749.34
2022-12-18T10:25:04.963Z,102757.41
2022-12-18T10:27:32.024Z,102765.03
2022-12-18T10:30:01.249Z,102755.06
2022-12-18T10:32:30.159Z,102760.91
2022-12-18T10:35:00.704Z,102749.13
2022-12-18T10:37:29.909Z,102727.13
2022-12-18T10:40:18.287Z,102728.59
2022-12-18T10:43:03.603Z,102738.47
2022-12-18T10:45:30.156Z,102742.13
2022-12-18T10:47:56.646Z,102726.13
2022-12-18T10:51:09.638Z,102718.75
2022-12-18T10:53:27.555Z,102721.97
2022-12-18T10:55:57.045Z,102720.28
2022-12-18T10:58:38.858Z,102716.28
2022-12-18T11:01:14.805Z,102710.53
2022-12-18T11:03:42.506Z,102704.97
2022-12-18T11:06:12.149Z,102703.59
2022-12-18T11:08:39.183Z,102692.81
2022-12-18T11:11:21.143Z,102682.00
2022-12-18T11:14:04.718Z,102678.84
2022-12-18T11:16:37.232Z,102679.09
2022-12-18T11:19:37.309Z,102685.34
2022-12-18T11:22:21.096Z,102674.56
2022-12-18T11:25:30.856Z,102665.34
2022-12-18T11:28:30.233Z,102658.78
2022-12-18T11:31:21.669Z,102653.81
2022-12-18T11:34:19.604Z,102652.63
2022-12-18T11:36:43.210Z,102664.09
2022-12-18T11:39:24.032Z,102674.94
2022-12-18T11:42:11.544Z,102664.75
2022-12-18T11:44:52.396Z,102659.97
2022-12-18T11:47:34.982Z,102648.34
2022-12-18T11:50:03.451Z,102654.78
2022-12-18T11:52:39.025Z,102650.63
2022-12-18T11:55:11.308Z,102650.22
2022-12-18T11:57:46.353Z,102652.03
2022-12-18T12:00:22.113Z,102637.00
2022-12-18T12:03:07.204Z,102622.78
2022-12-18T12:05:36.508Z,102621.75
2022-12-18T12:08:18.260Z,102620.38
2022-12-18T12:11:07.524Z,102609.16
2022-12-18T12:13:40.239Z,102606.34
2022-12-18T12:16:30.047Z,102602.72
2022-12-18T12:19:23.262Z,102604.16
2022-12-18T12:22:01.451Z,102594.97
2022-12-18T12:24:56.875Z,102587.53
2022-12-18T12:27:35.201Z,102592.38
2022-12-18T12:30:10.345Z,102591.38
2022-12-18T12:32:46.617Z,102593.59
2022-12-18T12:35:43.110Z,102584.78
2022-12-18T12:38:15.698Z,102578.53
2022-12-18T12:40:55.205Z,102580.75
2022-12-18T12:43:40.357Z,102575.53
2022-12-18T12:46:12.190Z,102569.34
2022-12-18T12:48:50.044Z,102567.53
2022-12-18T12:51:23.208Z,102551.66
2022-12-18T12:53:50.931Z,102551.47
2022-12-18T12:56:20.217Z,102549.47
2022-12-18T12:58:56.407Z,102548.28
2022-12-18T13:01:26.848Z,102544.66
2022-12-18T13:04:12.214Z,102539.06
2022-12-18T13:07:05.371Z,102543.06
2022-12-18T13:09:36.793Z,102542.25
2022-12-18T13:12:35.172Z,102536.03
2022-12-18T13:15:41.827Z,102540.88
2022-12-18T13:18:11.170Z,102545.09
2022-12-18T13:20:47.900Z,102548.28
2022-12-18T13:23:25.161Z,102542.09
2022-12-18T13:26:11.245Z,102548.72
2022-12-18T13:28:46.872Z,102542.69
2022-12-18T13:31:14.272Z,102523.41
2022-12-18T13:34:16.949Z,102513.97
2022-12-18T13:36:34.590Z,102533.84
2022-12-18T13:39:26.555Z,102518.19
2022-12-18T13:42:31.377Z,102512.75
2022-12-18T13:44:58.783Z,102510.97
2022-12-18T13:47:38.300Z,102511.94
2022-12-18T13:50:29.739Z,102504.13
2022-12-18T13:53:00.351Z,102487.47
2022-12-18T13:55:26.688Z,102483.25
2022-12-18T13:58:05.376Z,102487.47
2022-12-18T14:00:32.640Z,102485.47
2022-12-18T14:03:00.455Z,102478.63
2022-12-18T14:05:37.121Z,102476.84
2022-12-18T14:08:09.291Z,102476.84
2022-12-18T14:10:49.337Z,102469.59
2022-12-18T14:13:32.982Z,102471.19
2022-12-18T14:16:04.247Z,102467.78
2022-12-18T14:18:34.799Z,102454.72
2022-12-18T14:21:04.659Z,102451.94
2022-12-18T14:23:35.595Z,102456.31
2022-12-18T14:26:06.282Z,102438.25
2022-12-18T14:28:33.078Z,102431.22
2022-12-18T14:30:59.521Z,102431.84
2022-12-18T14:33:28.286Z,102431.84
2022-12-18T14:36:01.611Z,102427.44
2022-12-18T14:38:38.527Z,102425.84
2022-12-18T14:41:12.796Z,102427.63
2022-12-18T14:43:43.737Z,102422.59
2022-12-18T14:46:39.777Z,102427.63
2022-12-18T14:49:30.150Z,102424.19
2022-12-18T14:52:02.254Z,102413.75
2022-12-18T14:54:30.835Z,102409.56
2022-12-18T14:57:18.069Z,102412.38
2022-12-18T14:59:44.451Z,102407.16
2022-12-18T15:02:28.890Z,102419.19
2022-12-18T15:05:02.662Z,102407.16
2022-12-18T15:07:41.823Z,102412.59
2022-12-18T15:10:08.050Z,102406.56
2022-12-18T15:12:37.059Z,102409.16
2022-12-18T15:15:05.621Z,102401.34
2022-12-18T15:17:32.298Z,102401.94
2022-12-18T15:20:10.032Z,102400.91
2022-12-18T15:22:37.240Z,102398.31
2022-12-18T15:25:24.767Z,102398.31
2022-12-18T15:27:56.030Z,102403.53
2022-12-18T15:30:24.706Z,102394.09
2022-12-18T15:32:52.502Z,102395.69
2022-12-18T15:35:21.875Z,102399.31
2022-12-18T15:37:48.800Z,102398.31
2022-12-18T15:40:23.959Z,102406.94
2022-12-18T15:43:13.381Z,102399.31
2022-12-18T15:45:39.824Z,102404.53
2022-12-18T15:48:21.231Z,102402.13
2022-12-18T15:50:49.928Z,102392.50
2022-12-18T15:53:16.254Z,102387.47
2022-12-18T15:56:01.564Z,102387.47
2022-12-18T15:58:27.943Z,102374.41
2022-12-18T16:00:56.606Z,102363.97
2022-12-18T16:03:22.965Z,102371.00
2022-12-18T16:05:49.857Z,102371.63
2022-12-18T16:08:16.176Z,102363.16
2022-12-18T16:10:42.507Z,102362.38
2022-12-18T16:13:16.424Z,102356.97
2022-12-18T16:15:45.751Z,102354.34
2022-12-18T16:18:12.097Z,102355.94
2022-12-18T16:20:39.421Z,102342.09
2022-12-18T16:23:05.764Z,102338.69
2022-12-18T16:25:32.150Z,102337.84
2022-12-18T16:27:58.516Z,102328.84
2022-12-18T16:30:32.716Z,102319.19
2022-12-18T16:33:05.247Z,102318.97
2022-12-18T16:35:31.606Z,102307.75
2022-12-18T16:37:57.926Z,102308.53
2022-12-18T16:40:24.214Z,102297.28
2022-12-18T16:42:50.570Z,102298.09
2022-12-18T16:45:18.256Z,102295.31
2022-12-18T16:47:45.007Z,102296.09
2022-12-18T16:50:12.233Z,102295.31
2022-12-18T16:52:39.059Z,102296.09
2022-12-18T16:55:06.164Z,102292.69
2022-12-18T16:57:32.978Z,102299.69
2022-12-18T17:00:04.651Z,102290.09
2022-12-18T17:02:32.300Z,102288.28
2022-12-18T17:04:59.386Z,102284.88
2022-12-18T17:07:26.698Z,102288.28
2022-12-18T17:09:53.992Z,102284.03
2022-12-18T17:12:21.015Z,102292.47
2022-12-18T17:14:47.442Z,102287.25
2022-12-18T17:17:22.802Z,102297.91
2022-12-18T17:19:50.294Z,102291.69
2022-12-18T17:22:16.608Z,102289.88
2022-12-18T17:24:42.920Z,102289.88
2022-12-18T17:27:09.311Z,102287.03
2022-12-18T17:29:36.014Z,102290.47
2022-12-18T17:32:02.355Z,102290.47
2022-12-18T17:34:29.025Z,102286.84
2022-12-18T17:36:56.543Z,102284.22
2022-12-18T17:39:22.853Z,102282.63
2022-12-18T17:41:49.865Z,102291.25
2022-12-18T17:44:17.050Z,102291.25
2022-12-18T17:46:45.894Z,102284.22
2022-12-18T17:49:12.387Z,102288.47
2022-12-18T17:51:39.472Z,102298.91
2022-12-18T17:54:05.953Z,102289.44
2022-12-18T17:56:32.820Z,102286.66
2022-12-18T17:58:59.253Z,102282.22
2022-12-18T18:01:26.290Z,102278.03
2022-12-18T18:03:55.857Z,102284.03
2022-12-18T18:06:23.303Z,102281.22
2022-12-18T18:08:49.986Z,102287.22
2022-12-18T18:11:51.275Z,102284.41
2022-12-18T18:14:20.243Z,102287.03
2022-12-18T18:16:51.919Z,102284.22
2022-12-18T18:19:21.992Z,102284.00
2022-12-18T18:21:52.064Z,102290.84
2022-12-18T18:24:23.186Z,102283.59
2022-12-18T18:26:49.922Z,102281.59
2022-12-18T18:29:22.057Z,102288.41
2022-12-18T18:31:48.793Z,102281.38
2022-12-18T18:34:17.819Z,102279.56
2022-12-18T18:36:46.039Z,102281.16
2022-12-18T18:39:13.464Z,102267.09
2022-12-18T18:41:39.759Z,102273.13
2022-12-18T18:44:06.878Z,102281.56
2022-12-18T18:46:33.427Z,102277.13
2022-12-18T18:48:59.745Z,102268.28
2022-12-18T18:51:31.467Z,102270.69
2022-12-18T18:54:00.994Z,102261.06
2022-12-18T18:59:13.803Z,102255.00
2022-12-18T19:01:40.337Z,102262.41
2022-12-18T19:04:06.816Z,102255.19
2022-12-18T19:06:33.378Z,102253.16
2022-12-18T19:09:02.289Z,102249.31
2022-12-18T19:11:47.237Z,102250.72
2022-12-18T19:14:15.116Z,102239.25
2022-12-18T19:16:43.084Z,102253.69
2022-12-18T19:19:09.768Z,102245.66
2022-12-18T19:21:38.056Z,102251.25
2022-12-18T19:24:05.536Z,102247.66
2022-12-18T19:26:32.077Z,102250.06
2022-12-18T19:29:03.334Z,102248.25
2022-12-18T19:31:35.141Z,102245.19
2022-12-18T19:34:03.759Z,102246.81
2022-12-18T19:36:31.111Z,102244.78
2022-12-18T19:38:59.460Z,102255.00
2022-12-18T19:41:28.260Z,102249.59
2022-12-18T19:43:57.383Z,102263.25
2022-12-18T19:46:23.999Z,102259.63
2022-12-18T19:48:51.111Z,102246.56
2022-12-18T19:51:21.317Z,102255.19
2022-12-18T19:53:49.293Z,102255.78
2022-12-18T19:56:20.054Z,102253.97
2022-12-18T19:58:47.058Z,102250.56
2022-12-18T20:01:16.668Z,102255.19
2022-12-18T20:03:44.829Z,102246.78
2022-12-18T20:06:26.224Z,102242.75
2022-12-18T20:08:57.986Z,102235.91
2022-12-18T20:11:26.700Z,102242.38
2022-12-18T20:13:53.008Z,102242.38
2022-12-18T20:16:19.390Z,102245.00
2022-12-18T20:18:45.722Z,102248.81
2022-12-18T20:21:14.017Z,102242.78
2022-12-18T20:23:41.368Z,102242.00
2022-12-18T20:26:08.693Z,102246.63
2022-12-18T20:28:35.201Z,102248.47
2022-12-18T20:31:03.990Z,102259.91
2022-12-18T20:33:30.875Z,102253.06
2022-12-18T20:36:02.447Z,102258.28
2022-12-18T20:38:30.574Z,102247.03
2022-12-18T20:40:59.304Z,102238.41
2022-12-18T20:43:25.620Z,102235.22
2022-12-18T20:45:59.747Z,102231.00
2022-12-18T20:48:27.127Z,102231.00
2022-12-18T20:51:08.156Z,102225.97
2022-12-18T20:53:35.375Z,102233.00
2022-12-18T20:56:08.308Z,102226.97
2022-12-18T20:58:35.641Z,102217.56
2022-12-18T21:01:13.161Z,102220.97
2022-12-18T21:03:41.036Z,102206.31
2022-12-18T21:06:08.604Z,102205.50
2022-12-18T21:08:34.947Z,102197.44
2022-12-18T21:11:38.346Z,102185.41
2022-12-18T21:14:09.086Z,102183.59
2022-12-18T21:16:35.817Z,102182.78
2022-12-18T21:19:02.253Z,102184.38
2022-12-18T21:21:28.900Z,102178.16
2022-12-18T21:23:55.271Z,102179.16
2022-12-18T21:26:24.367Z,102172.91
2022-12-18T21:28:56.298Z,102172.91
2022-12-18T21:31:24.955Z,102168.31
2022-12-18T21:33:52.007Z,102167.28
2022-12-18T21:36:26.163Z,102170.47
2022-12-18T21:38:57.124Z,102161.63
2022-12-18T21:41:43.050Z,102160.03
2022-12-18T21:44:14.056Z,102162.41
2022-12-18T21:46:48.950Z,102167.47
2022-12-18T21:49:21.292Z,102157.59
2022-12-18T21:51:49.426Z,102167.81
2022-12-18T21:54:16.406Z,102164.19
2022-12-18T21:56:56.277Z,102157.16
2022-12-18T21:59:25.485Z,102144.69
2022-12-18T22:01:52.990Z,102130.59
2022-12-18T22:04:20.506Z,102141.84
2022-12-18T22:06:48.202Z,102132.19
2022-12-18T22:09:20.066Z,102120.72
2022-12-18T22:11:47.273Z,102128.56
2022-12-18T22:14:14.868Z,102124.97
2022-12-18T22:16:41.916Z,102114.50
2022-12-18T22:19:10.018Z,102112.47
2022-12-18T22:21:39.623Z,102106.22
2022-12-18T22:24:10.008Z,102105.19
2022-12-18T22:26:40.200Z,102096.38
2022-12-18T22:29:26.676Z,102084.09
2022-12-18T22:31:53.008Z,102075.00
2022-12-18T22:34:22.838Z,102069.00
2022-12-18T22:36:49.827Z,102058.31
2022-12-18T22:39:21.734Z,102047.84
2022-12-18T22:41:48.411Z,102052.91
2022-12-18T22:44:15.208Z,102037.22
2022-12-18T22:46:47.733Z,102033.78
2022-12-18T22:49:21.831Z,102026.75
2022-12-18T22:51:48.849Z,102019.47
2022-12-18T22:54:15.773Z,102017.44
2022-12-18T22:56:42.866Z,102022.47
2022-12-18T22:59:16.758Z,102023.28
2022-12-18T23:01:44.010Z,102023.03
2022-12-18T23:04:13.103Z,102021.22
2022-12-18T23:06:40.578Z,102033.28
2022-12-18T23:09:07.722Z,102016.56
2022-12-18T23:11:34.035Z,101996.44
2022-12-18T23:14:00.566Z,101989.44
2022-12-18T23:16:28.006Z,101972.72
2022-12-18T23:18:55.390Z,101981.38
2022-12-18T23:21:23.163Z,101971.47
2022-12-18T23:23:50.893Z,101988.75
2022-12-18T23:26:20.204Z,101987.75
2022-12-18T23:28:47.093Z,101988.56
2022-12-18T23:31:14.870Z,101989.34
2022-12-18T23:33:43.491Z,101988.34
2022-12-18T23:36:11.936Z,101978.25
2022-12-18T23:38:39.537Z,101976.44
2022-12-18T23:41:11.164Z,101963.34
2022-12-18T23:43:38.527Z,101947.44
2022-12-18T23:46:16.611Z,101936.75
2022-12-18T23:48:42.939Z,101927.88
2022-12-18T23:51:11.538Z,101922.66
2022-12-18T23:53:37.980Z,101934.72
2022-12-18T23:56:08.390Z,101941.56
2022-12-18T23:58:35.819Z,101937.91
